Hinesburg, VT (05461)

7:13 AM EST on November 23, 2014 (GMT -0500)
KVTHINES4 | Change Station
CLOSE
Current Station
Personal Weather Station
Location: Hinesburg, VT
Elevation: 344 ft
Nearby Weather Stations

Elev 344 ft 44.33 °N, 73.11 °W | Updated 31 seconds ago

Overcast
Overcast
41.7 °F
Feels Like 42 °F
N
0.0
Wind Variable Wind from NE
Gusts 1.6 mph

Today
High -- | Low -- °F
--% Chance of Precip.
Yesterday
High -- | Low -- °F
Precip. -- in
6:58 AM 4:18 PM
New Moon, 1% visible
Pressure 30.03 in
Visibility 10.0 miles
Clouds Overcast 2500 ft
Windchill 42 °F
Dew Point 37 °F
Humidity 84%
Rainfall 0.02 in
Snow Depth Not available.
UV 0 out of 12
Pollen .10 out of 12
Air Quality Not available.
Flu Activity Not available.
METAR KBTV 231154Z 21008KT 10SM OVC025 06/02 A3003

More Conditions Fewer Conditions

Pressure 30.03 in
Visibility 10.0 miles
Clouds Overcast 2500 ft
Windchill 42 °F
Dew Point 37 °F
Humidity 84%
Rainfall 0.02 in
Snow Depth Not available.
UV 0 out of 12
Pollen .10 out of 12
Air Quality Not available.
Flu Activity Not available.
METAR KBTV 231154Z 21008KT 10SM OVC025 06/02 A3003

More Conditions Fewer Conditions

10-Day Weather Forecast

Almanac

Astronomy

Nov. 23, 2014 Rise Set
Actual Time
Civil Twilight
Nautical Twilight
Astronomical Twilight
Moon
Length of Visible Light
Length of Day
Tomorrow will be .
, % of the Moon is Illuminated

Today's Extremes

State Highs State Lows

Community

WunderPhotos

Upload Photos

1,773,041 photos uploaded!

WunderBlogs® & News

Nearby

Air Quality

  Air Quality AQ Index Pollutant
Not available.

Snow Depth

Station Depth Elevation

Earthquake Activity

City Distance Mag. Time & Date
Minimum magnitude displayed is 2.5.

Coastal Water Temperatures

Place Temperature

Nearby Weather Stations